Time;durP1;ratioP1;P1;durP2;ratioP2;P2;SDS_P1;SDS_P2;PMS_P1;PMS_P2;Temp;Humidity;BMP_temperature;BMP_pressure;BME280_temperature;BME280_humidity;BME280_pressure;Samples;Min_cycle;Max_cycle;Signal;HPM_P1;HPM_P2
2021/10/28 00:12:22;;;;;;;;;;;;;;;20.00;59.86;100052.66;2055270;28;19918;-61
2021/10/28 00:13:24;;;;;;;;;;;;;;;19.98;59.92;100049.22;2054417;28;19932;-61
2021/10/28 00:14:25;;;;;;;;;;;;;;;19.99;59.69;100055.53;2047104;28;19943;-61
2021/10/28 00:15:34;;;;;;;;;;;;;;;19.99;59.83;100045.47;2056267;28;19981;-61
2021/10/28 00:16:36;;;;;;;;;;;;;;;19.98;59.72;100040.16;2073338;28;19921;-62
2021/10/28 00:18:45;;;;;;;;;;;;;;;19.97;59.92;100042.03;2071486;28;20004;-61
2021/10/28 00:19:45;;;;;;;;;;;;;;;19.98;59.85;100040.16;2073148;28;20470;-61
2021/10/28 00:20:45;;;;;;;;;;;;;;;19.97;59.79;100050.25;2078520;28;20370;-61
2021/10/28 00:21:46;;;;;;;;;;;;;;;19.96;59.70;100040.31;2074647;28;20636;-61
2021/10/28 00:22:47;;;;;;;;;;;;;;;19.96;59.64;100034.84;2076237;28;19927;-61
2021/10/28 00:23:49;;;;;;;;;;;;;;;19.96;59.78;100036.72;2066767;28;20753;-61
2021/10/28 00:24:50;;;;;;;;;;;;;;;19.95;59.80;100038.59;2064733;28;19929;-61
2021/10/28 00:25:50;;;;;;;;;;;;;;;19.95;59.74;100033.13;2077198;28;19924;-62
2021/10/28 00:26:51;;;;;;;;;;;;;;;19.96;59.81;100028.50;2072129;28;19935;-61
2021/10/28 00:27:52;;;;;;;;;;;;;;;19.94;59.66;100036.84;2076933;28;19920;-61
2021/10/28 00:28:58;;;;;;;;;;;;;;;19.93;59.68;100029.69;2077135;28;19920;-61
2021/10/28 00:29:58;;;;;;;;;;;;;;;19.92;59.75;100027.97;2080608;28;20015;-61
2021/10/28 00:30:58;;;;;;;;;;;;;;;19.92;59.76;100026.09;2083540;28;19920;-60
2021/10/28 00:31:59;;;;;;;;;;;;;;;19.92;59.90;100022.50;2080997;28;19924;-61
2021/10/28 00:32:59;;;;;;;;;;;;;;;19.92;59.77;100022.50;2081275;28;19925;-62
2021/10/28 00:34:00;;;;;;;;;;;;;;;19.91;59.83;100026.25;2083567;28;19920;-61
2021/10/28 00:35:00;;;;;;;;;;;;;;;19.91;59.85;100020.75;2080431;28;20031;-61
2021/10/28 00:36:02;;;;;;;;;;;;;;;19.92;60.01;100022.50;2080541;28;20398;-61
2021/10/28 00:37:03;;;;;;;;;;;;;;;19.91;59.84;100020.75;2085923;28;20658;-62
2021/10/28 00:38:22;;;;;;;;;;;;;;;19.91;59.94;100020.75;2082538;28;19924;-62
2021/10/28 00:39:22;;;;;;;;;;;;;;;19.91;59.82;100020.75;2078914;28;19920;-61
2021/10/28 00:42:01;;;;;;;;;;;;;;;19.89;59.82;100011.84;2086871;28;19982;-61
2021/10/28 00:43:02;;;;;;;;;;;;;;;19.90;59.82;100021.78;2082417;28;19926;-61
2021/10/28 00:44:03;;;;;;;;;;;;;;;19.89;60.03;100014.59;2082017;28;20184;-61
2021/10/28 00:45:05;;;;;;;;;;;;;;;19.88;60.03;100021.09;2082271;28;19920;-61
2021/10/28 00:46:06;;;;;;;;;;;;;;;19.89;59.87;100025.53;2081795;28;19917;-62
2021/10/28 00:47:06;;;;;;;;;;;;;;;19.87;59.84;100020.22;2084186;28;19925;-62
2021/10/28 00:48:07;;;;;;;;;;;;;;;19.88;59.87;100021.94;2082774;28;19920;-61
2021/10/28 00:49:09;;;;;;;;;;;;;;;19.87;60.02;100013.91;2081555;28;19921;-61
2021/10/28 00:50:09;;;;;;;;;;;;;;;19.87;60.03;100011.19;2081795;28;19916;-61
2021/10/28 00:51:10;;;;;;;;;;;;;;;19.87;59.93;100016.66;2082203;28;20463;-62
2021/10/28 00:52:10;;;;;;;;;;;;;;;19.86;59.87;100020.38;2082514;28;20011;-61
2021/10/28 00:53:10;;;;;;;;;;;;;;;19.87;59.90;100019.38;2083118;28;20014;-61
2021/10/28 00:54:12;;;;;;;;;;;;;;;19.86;59.90;100014.91;2084301;28;19923;-62
2021/10/28 00:55:13;;;;;;;;;;;;;;;19.86;59.92;100014.91;2083092;28;19952;-61
2021/10/28 00:56:13;;;;;;;;;;;;;;;19.85;60.01;100011.31;2079359;28;19928;-61
2021/10/28 00:57:14;;;;;;;;;;;;;;;19.85;60.03;100015.94;2080729;28;19969;-61
2021/10/28 00:58:20;;;;;;;;;;;;;;;19.84;59.97;100015.09;2082217;28;19920;-61
2021/10/28 00:59:20;;;;;;;;;;;;;;;19.84;59.92;100009.63;2079016;28;19958;-61
2021/10/28 01:00:21;;;;;;;;;;;;;;;19.85;59.96;100010.47;2080240;28;19920;-62
2021/10/28 01:01:21;;;;;;;;;;;;;;;19.85;59.96;100010.47;2080339;28;19926;-61
2021/10/28 01:02:21;;;;;;;;;;;;;;;19.85;59.89;100005.00;2082545;28;19952;-61
2021/10/28 01:03:22;;;;;;;;;;;;;;;19.83;60.02;100009.75;2081849;28;19920;-61
2021/10/28 01:04:22;;;;;;;;;;;;;;;19.84;60.02;100008.72;2082525;28;20756;-61
2021/10/28 01:05:22;;;;;;;;;;;;;;;19.82;59.96;100011.66;2081752;28;19963;-61
2021/10/28 01:06:23;;;;;;;;;;;;;;;19.83;59.93;100007.03;2085031;28;19935;-61
2021/10/28 01:07:23;;;;;;;;;;;;;;;19.82;59.95;100005.28;2082429;28;19981;-60
2021/10/28 01:08:25;;;;;;;;;;;;;;;19.83;59.94;100004.28;2085412;28;20424;-61
2021/10/28 01:09:25;;;;;;;;;;;;;;;19.82;60.10;100002.56;2084503;28;20592;-61
2021/10/28 01:10:25;;;;;;;;;;;;;;;19.81;60.16;99998.97;2082040;28;20364;-61
2021/10/28 01:11:27;;;;;;;;;;;;;;;19.81;59.98;100000.84;2082351;28;19925;-62
2021/10/28 01:12:27;;;;;;;;;;;;;;;19.81;59.98;99998.13;2085842;28;19924;-61
2021/10/28 01:13:28;;;;;;;;;;;;;;;19.80;59.97;100001.88;2080328;28;20393;-61
2021/10/28 01:14:39;;;;;;;;;;;;;;;19.81;60.09;100003.59;2074431;28;19917;-61
2021/10/28 01:15:39;;;;;;;;;;;;;;;19.80;60.07;99999.13;2076939;28;19927;-61
2021/10/28 01:16:39;;;;;;;;;;;;;;;19.80;60.01;99991.78;2079975;28;19955;-61
2021/10/28 01:17:40;;;;;;;;;;;;;;;19.80;60.13;99990.94;2084242;28;19923;-61
2021/10/28 01:18:40;;;;;;;;;;;;;;;19.79;60.08;99995.53;2081324;28;19923;-61
2021/10/28 01:19:41;;;;;;;;;;;;;;;19.78;60.08;99990.22;2082223;28;20447;-61
2021/10/28 01:20:42;;;;;;;;;;;;;;;19.78;60.11;99987.50;2085300;28;20669;-61
2021/10/28 01:21:43;;;;;;;;;;;;;;;19.78;60.06;99998.44;2078515;28;19940;-61
2021/10/28 01:22:43;;;;;;;;;;;;;;;19.78;60.10;99992.97;2085110;28;19920;-61
2021/10/28 01:23:44;;;;;;;;;;;;;;;19.77;60.03;99994.84;2082623;28;20044;-61
2021/10/28 01:24:45;;;;;;;;;;;;;;;19.77;60.08;99992.09;2080548;28;19924;-61
2021/10/28 01:25:56;;;;;;;;;;;;;;;19.77;60.11;99991.22;2085277;28;19916;-61
2021/10/28 01:27:08;;;;;;;;;;;;;;;19.77;60.14;99996.69;2087919;28;20565;-61
2021/10/28 01:28:13;;;;;;;;;;;;;;;19.76;59.98;99995.00;2083936;28;20469;-61
2021/10/28 01:29:13;;;;;;;;;;;;;;;19.76;60.14;99989.53;2084385;28;21424;-61
2021/10/28 01:30:13;;;;;;;;;;;;;;;19.76;60.12;99989.53;2083809;28;19924;-61
2021/10/28 01:31:14;;;;;;;;;;;;;;;19.76;60.02;99984.06;2083586;28;20013;-61
2021/10/28 01:32:14;;;;;;;;;;;;;;;19.74;60.00;99984.19;2081544;28;19920;-61
2021/10/28 01:33:15;;;;;;;;;;;;;;;19.74;60.07;99981.47;2083193;28;19943;-61
2021/10/28 01:34:17;;;;;;;;;;;;;;;19.73;60.01;99985.22;2083653;28;20041;-61
2021/10/28 01:35:18;;;;;;;;;;;;;;;19.74;60.13;99983.34;2082404;28;20706;-61
2021/10/28 01:36:20;;;;;;;;;;;;;;;19.73;60.12;99978.91;2084286;28;20066;-61
2021/10/28 01:37:21;;;;;;;;;;;;;;;19.72;60.17;99975.31;2075403;28;19932;-61
2021/10/28 01:38:21;;;;;;;;;;;;;;;19.73;60.24;99978.91;2076316;28;19927;-61
2021/10/28 01:39:22;;;;;;;;;;;;;;;19.73;60.17;99976.16;2082115;28;19966;-61
2021/10/28 01:40:22;;;;;;;;;;;;;;;19.73;60.16;99974.28;2082551;28;19938;-61
2021/10/28 01:41:25;;;;;;;;;;;;;;;19.73;60.18;99970.69;2084204;28;19941;-61
2021/10/28 01:42:27;;;;;;;;;;;;;;;19.72;60.20;99966.22;2083003;28;19924;-61
2021/10/28 01:43:28;;;;;;;;;;;;;;;19.70;60.25;99970.00;2083707;28;19974;-61
2021/10/28 01:44:29;;;;;;;;;;;;;;;19.71;60.09;99973.56;2084337;28;20347;-61
2021/10/28 01:45:29;;;;;;;;;;;;;;;19.70;60.15;99963.66;2082965;28;19925;-61
2021/10/28 01:46:30;;;;;;;;;;;;;;;19.69;60.11;99962.78;2087674;28;19909;-61
2021/10/28 01:47:30;;;;;;;;;;;;;;;19.69;60.06;99962.78;2084815;28;19920;-61
2021/10/28 01:48:31;;;;;;;;;;;;;;;19.69;60.07;99960.06;2082593;28;19913;-61
2021/10/28 01:49:32;;;;;;;;;;;;;;;19.70;60.20;99960.94;2086053;28;19990;-61
2021/10/28 01:50:32;;;;;;;;;;;;;;;19.69;60.28;99961.94;2082699;28;19912;-61
2021/10/28 01:51:33;;;;;;;;;;;;;;;19.69;60.18;99965.53;2073557;28;19936;-61
2021/10/28 01:52:35;;;;;;;;;;;;;;;19.67;60.12;99964.84;2075256;28;19920;-61
2021/10/28 01:53:40;;;;;;;;;;;;;;;19.67;60.07;99959.38;2083000;28;19944;-61
2021/10/28 01:54:40;;;;;;;;;;;;;;;19.67;60.21;99959.38;2083203;28;19923;-61
2021/10/28 01:55:41;;;;;;;;;;;;;;;19.66;60.18;99952.13;2083591;28;19963;-61
2021/10/28 01:56:42;;;;;;;;;;;;;;;19.66;60.15;99952.13;2082544;28;19924;-61
2021/10/28 01:57:43;;;;;;;;;;;;;;;19.66;60.26;99957.59;2083708;28;20015;-61
2021/10/28 01:58:43;;;;;;;;;;;;;;;19.66;60.13;99952.13;2079540;28;19924;-61
2021/10/28 01:59:44;;;;;;;;;;;;;;;19.65;60.15;99950.44;2082065;28;19966;-61
2021/10/28 02:00:44;;;;;;;;;;;;;;;19.65;60.15;99953.16;2080305;28;20609;-61
2021/10/28 02:01:45;;;;;;;;;;;;;;;19.64;60.24;99948.69;2080798;28;19916;-61
2021/10/28 02:02:45;;;;;;;;;;;;;;;19.64;60.27;99954.16;2082570;28;19935;-61
2021/10/28 02:03:46;;;;;;;;;;;;;;;19.63;60.16;99952.47;2084263;28;19966;-61
2021/10/28 02:04:46;;;;;;;;;;;;;;;19.63;60.20;99947.00;2083306;28;20544;-61
2021/10/28 02:05:48;;;;;;;;;;;;;;;19.63;60.25;99943.41;2086475;28;20582;-61
2021/10/28 02:06:48;;;;;;;;;;;;;;;19.61;60.23;99949.00;2082764;28;19924;-61
2021/10/28 02:07:50;;;;;;;;;;;;;;;19.62;60.24;99948.03;2081102;28;19912;-61
2021/10/28 02:08:50;;;;;;;;;;;;;;;19.61;60.30;99946.28;2083291;28;19913;-61
2021/10/28 02:09:50;;;;;;;;;;;;;;;19.61;60.14;99938.06;2082258;28;20390;-61
2021/10/28 02:10:51;;;;;;;;;;;;;;;19.60;60.21;99941.84;2073370;28;19920;-61
2021/10/28 02:11:51;;;;;;;;;;;;;;;19.61;60.24;99943.53;2075190;28;19920;-61
2021/10/28 02:12:54;;;;;;;;;;;;;;;19.60;60.17;99940.97;2085202;28;20030;-61
2021/10/28 02:13:58;;;;;;;;;;;;;;;19.59;60.33;99940.09;2082488;28;19947;-61
2021/10/28 02:14:59;;;;;;;;;;;;;;;19.59;60.22;99940.09;2082067;28;19923;-62
2021/10/28 02:15:59;;;;;;;;;;;;;;;19.59;60.25;99937.38;2084510;28;19955;-61
2021/10/28 02:16:59;;;;;;;;;;;;;;;19.58;60.30;99938.41;2082152;28;20298;-61
2021/10/28 02:18:00;;;;;;;;;;;;;;;19.58;60.26;99935.66;2086047;28;20002;-61
2021/10/28 02:19:01;;;;;;;;;;;;;;;19.58;60.25;99938.41;2077534;28;19971;-61
2021/10/28 02:20:26;;;;;;;;;;;;;;;19.58;60.16;99938.41;2083205;28;20507;-61
2021/10/28 02:21:27;;;;;;;;;;;;;;;19.57;60.26;99931.19;2082449;28;19959;-61
2021/10/28 02:22:27;;;;;;;;;;;;;;;19.57;60.28;99931.19;2081843;28;19919;-61
2021/10/28 02:23:28;;;;;;;;;;;;;;;19.56;60.26;99924.03;2083373;28;19923;-61
2021/10/28 02:24:30;;;;;;;;;;;;;;;19.56;60.28;99924.03;2081604;28;19909;-61
2021/10/28 02:25:31;;;;;;;;;;;;;;;19.56;60.29;99925.91;2081617;28;20357;-61
2021/10/28 02:26:32;;;;;;;;;;;;;;;19.56;60.29;99924.03;2081839;28;20199;-61
2021/10/28 02:27:33;;;;;;;;;;;;;;;19.55;60.34;99925.06;2081294;28;19951;-62
2021/10/28 02:28:33;;;;;;;;;;;;;;;19.55;60.30;99922.31;2084916;28;19932;-61
2021/10/28 02:29:33;;;;;;;;;;;;;;;19.54;60.30;99926.03;2082592;28;19928;-61
2021/10/28 02:30:34;;;;;;;;;;;;;;;19.55;60.27;99918.69;2085513;28;20796;-61
2021/10/28 02:31:35;;;;;;;;;;;;;;;19.54;60.31;99917.84;2078186;28;19920;-61
2021/10/28 02:32:36;;;;;;;;;;;;;;;19.54;60.26;99923.31;2083347;28;20885;-61
2021/10/28 02:33:37;;;;;;;;;;;;;;;19.53;60.31;99918.88;2078119;28;19978;-61
2021/10/28 02:34:38;;;;;;;;;;;;;;;19.53;60.22;99918.03;2082005;28;20440;-61
2021/10/28 02:35:38;;;;;;;;;;;;;;;19.52;60.32;99914.41;2084726;28;20661;-61
2021/10/28 02:36:38;;;;;;;;;;;;;;;19.52;60.32;99919.88;2083658;28;19920;-61
2021/10/28 02:37:39;;;;;;;;;;;;;;;19.52;60.28;99919.88;2083397;28;19917;-61
2021/10/28 02:38:39;;;;;;;;;;;;;;;19.51;60.34;99915.44;2081104;28;19928;-61
2021/10/28 02:39:39;;;;;;;;;;;;;;;19.51;60.26;99918.16;2082787;28;19942;-61
2021/10/28 02:40:39;;;;;;;;;;;;;;;19.51;60.31;99909.97;2084144;28;19967;-61
2021/10/28 02:41:41;;;;;;;;;;;;;;;19.51;60.41;99912.69;2084466;28;19917;-61
2021/10/28 02:42:41;;;;;;;;;;;;;;;19.51;60.33;99920.06;2076332;28;19920;-62
2021/10/28 02:43:42;;;;;;;;;;;;;;;19.51;60.33;99920.06;2073867;28;19925;-62
2021/10/28 02:44:43;;;;;;;;;;;;;;;19.50;60.27;99916.47;2082324;28;20337;-61
2021/10/28 02:45:44;;;;;;;;;;;;;;;19.50;60.35;99919.19;2074388;28;19966;-61
2021/10/28 02:46:45;;;;;;;;;;;;;;;19.49;60.36;99914.72;2073207;28;19920;-61
2021/10/28 02:47:45;;;;;;;;;;;;;;;19.48;60.32;99913.03;2083786;28;20180;-61
2021/10/28 02:48:45;;;;;;;;;;;;;;;19.48;60.34;99904.81;2081385;28;22071;-60
2021/10/28 02:49:46;;;;;;;;;;;;;;;19.48;60.35;99910.28;2084023;28;20015;-61
2021/10/28 02:50:47;;;;;;;;;;;;;;;19.46;60.41;99913.16;2083884;28;19968;-61
2021/10/28 02:51:47;;;;;;;;;;;;;;;19.47;60.41;99914.88;2086915;28;19927;-61
2021/10/28 02:52:47;;;;;;;;;;;;;;;19.47;60.26;99909.41;2086906;28;20861;-61
2021/10/28 02:53:48;;;;;;;;;;;;;;;19.46;60.30;99915.06;2080448;28;20209;-61
2021/10/28 02:54:49;;;;;;;;;;;;;;;19.45;60.30;99906.00;2082676;28;20201;-61
2021/10/28 02:55:49;;;;;;;;;;;;;;;19.46;60.31;99906.84;2084458;28;19920;-61
2021/10/28 02:56:49;;;;;;;;;;;;;;;19.45;60.31;99900.53;2082659;28;19931;-61
2021/10/28 02:57:50;;;;;;;;;;;;;;;19.45;60.33;99905.13;2087252;28;19952;-61
2021/10/28 02:58:51;;;;;;;;;;;;;;;19.45;60.20;99905.13;2081478;28;19986;-61
2021/10/28 02:59:51;;;;;;;;;;;;;;;19.44;60.36;99901.53;2074476;28;20386;-60
2021/10/28 03:00:52;;;;;;;;;;;;;;;19.45;60.35;99896.91;2076161;28;20011;-61
2021/10/28 03:01:54;;;;;;;;;;;;;;;19.43;60.39;99897.09;2081895;28;19920;-61
2021/10/28 03:02:54;;;;;;;;;;;;;;;19.43;60.38;99893.50;2083813;28;20651;-61
2021/10/28 03:03:54;;;;;;;;;;;;;;;19.44;60.38;99897.94;2082755;28;19920;-61
2021/10/28 03:04:55;;;;;;;;;;;;;;;19.41;60.13;99893.66;2082641;28;19922;-61
2021/10/28 03:05:55;;;;;;;;;;;;;;;19.42;60.26;99902.69;2082875;28;19920;-61
2021/10/28 03:06:56;;;;;;;;;;;;;;;19.42;60.34;99891.78;2079146;28;19924;-61
2021/10/28 03:07:57;;;;;;;;;;;;;;;19.41;60.26;99901.84;2083847;28;20050;-61
2021/10/28 03:08:57;;;;;;;;;;;;;;;19.40;60.41;99889.22;2084153;28;19924;-61
2021/10/28 03:09:58;;;;;;;;;;;;;;;19.40;60.38;99888.31;2081006;28;20064;-61
2021/10/28 03:10:58;;;;;;;;;;;;;;;19.40;60.43;99891.94;2084170;28;19924;-61
2021/10/28 03:11:59;;;;;;;;;;;;;;;19.40;60.40;99886.47;2083660;28;19909;-61
2021/10/28 03:13:00;;;;;;;;;;;;;;;19.39;60.26;99890.22;2082235;28;19913;-61
2021/10/28 03:14:00;;;;;;;;;;;;;;;19.38;60.35;99888.50;2072157;28;20759;-61
2021/10/28 03:15:03;;;;;;;;;;;;;;;19.39;60.33;99892.09;2071996;28;20508;-61
2021/10/28 03:26:31;;;;;;;;;;;;;;;19.34;60.48;99878.88;2081459;28;19924;-61
2021/10/28 03:27:31;;;;;;;;;;;;;;;19.35;60.34;99887.94;2081430;28;19912;-61
2021/10/28 03:28:32;;;;;;;;;;;;;;;19.33;60.35;99882.66;2082896;28;19931;-61
2021/10/28 03:29:32;;;;;;;;;;;;;;;19.33;60.42;99885.38;2081636;28;20028;-61
2021/10/28 03:30:32;;;;;;;;;;;;;;;19.33;60.42;99877.19;2081372;28;19978;-61
2021/10/28 03:31:33;;;;;;;;;;;;;;;19.33;60.48;99879.03;2081185;28;20358;-61
2021/10/28 03:32:33;;;;;;;;;;;;;;;19.32;60.34;99886.38;2081079;28;19927;-62
2021/10/28 03:33:36;;;;;;;;;;;;;;;19.32;60.44;99877.34;2083055;28;19955;-60
2021/10/28 03:34:37;;;;;;;;;;;;;;;19.32;60.34;99885.53;2081934;28;19920;-61
2021/10/28 03:35:37;;;;;;;;;;;;;;;19.32;60.31;99882.78;2083870;28;19963;-61
2021/10/28 03:37:27;;;;;;;;;;;;;;;19.31;60.46;99881.09;2082575;28;20095;-61
2021/10/28 03:38:06;;;;;;;;;;;;;;;19.31;60.37;99881.09;2062791;28;19912;-61
2021/10/28 03:39:21;;;;;;;;;;;;;;;19.30;60.43;99874.75;2079566;28;20652;-61
2021/10/28 03:43:13;;;;;;;;;;;;;;;19.27;60.38;99875.91;2083797;28;20421;-61
2021/10/28 04:03:46;;;;;;;;;;;;;;;19.22;60.37;99859.13;2082607;28;20501;-61
2021/10/28 04:04:20;;;;;;;;;;;;;;;19.23;60.37;99862.72;2071572;28;19912;-61
2021/10/28 04:18:02;;;;;;;;;;;;;;;19.18;60.40;99852.28;2083796;28;19998;-60
2021/10/28 04:29:56;;;;;;;;;;;;;;;19.15;60.43;99843.53;2078826;28;19971;-59
2021/10/28 04:30:56;;;;;;;;;;;;;;;19.14;60.52;99847.28;2082926;28;19921;-59
2021/10/28 04:31:56;;;;;;;;;;;;;;;19.15;60.55;99849.00;2078113;28;19955;-59
2021/10/28 04:32:57;;;;;;;;;;;;;;;19.14;60.44;99845.41;2080957;28;20022;-59
2021/10/28 04:33:58;;;;;;;;;;;;;;;19.14;60.45;99841.81;2082470;28;19913;-59
2021/10/28 04:34:59;;;;;;;;;;;;;;;19.13;60.44;99840.09;2081944;28;19912;-60
2021/10/28 04:35:59;;;;;;;;;;;;;;;19.13;60.37;99843.66;2082715;28;20436;-59
2021/10/28 04:37:00;;;;;;;;;;;;;;;19.13;60.49;99840.94;2082614;28;19913;-59
2021/10/28 04:38:00;;;;;;;;;;;;;;;19.13;60.37;99842.81;2081560;28;19973;-59
2021/10/28 04:39:03;;;;;;;;;;;;;;;19.12;60.48;99846.56;2084015;28;20003;-59
2021/10/28 04:40:04;;;;;;;;;;;;;;;19.12;60.50;99841.97;2083084;28;19924;-60
2021/10/28 04:41:04;;;;;;;;;;;;;;;19.12;60.46;99850.16;2084389;28;19920;-59
2021/10/28 04:42:05;;;;;;;;;;;;;;;19.11;60.49;99843.00;2084858;28;19924;-59
2021/10/28 04:43:05;;;;;;;;;;;;;;;19.12;60.37;99852.03;2083924;28;20015;-60
2021/10/28 04:44:11;;;;;;;;;;;;;;;19.11;60.47;99848.47;2084053;28;19920;-59
2021/10/28 04:45:11;;;;;;;;;;;;;;;19.10;60.52;99837.66;2084066;28;20516;-59
2021/10/28 04:46:12;;;;;;;;;;;;;;;19.10;60.47;99846.72;2083415;28;22324;-59
2021/10/28 04:47:12;;;;;;;;;;;;;;;19.10;60.52;99846.72;2085238;28;19920;-59
2021/10/28 04:48:12;;;;;;;;;;;;;;;19.09;60.39;99845.03;2084558;28;19924;-59
2021/10/28 04:49:13;;;;;;;;;;;;;;;19.10;60.53;99854.91;2081726;28;20002;-59
2021/10/28 04:50:13;;;;;;;;;;;;;;;19.09;60.47;99847.75;2085638;28;19920;-59
2021/10/28 04:51:14;;;;;;;;;;;;;;;19.08;60.32;99843.28;2075171;28;19925;-59
2021/10/28 04:52:14;;;;;;;;;;;;;;;19.08;60.39;99846.00;2076182;28;20256;-60
2021/10/28 04:53:15;;;;;;;;;;;;;;;19.08;60.49;99848.75;2081564;28;19928;-61
2021/10/28 04:54:15;;;;;;;;;;;;;;;19.08;60.52;99839.69;2082513;28;19916;-61
2021/10/28 04:55:15;;;;;;;;;;;;;;;19.08;60.51;99848.75;2082327;28;20568;-60
2021/10/28 04:56:16;;;;;;;;;;;;;;;19.08;60.43;99846.00;2081794;28;19987;-60
2021/10/28 04:57:16;;;;;;;;;;;;;;;19.07;60.49;99855.22;2085377;28;19924;-61
2021/10/28 04:58:17;;;;;;;;;;;;;;;19.07;60.57;99855.22;2083426;28;20015;-60
2021/10/28 04:59:17;;;;;;;;;;;;;;;19.06;60.51;99845.34;2083211;28;20641;-60
2021/10/28 05:00:18;;;;;;;;;;;;;;;19.05;60.43;99844.44;2085342;28;19913;-60
2021/10/28 05:01:21;;;;;;;;;;;;;;;19.06;60.42;99850.81;2082320;28;20302;-60
2021/10/28 05:02:21;;;;;;;;;;;;;;;19.06;60.51;99861.72;2083935;28;20216;-61
2021/10/28 05:03:22;;;;;;;;;;;;;;;19.05;60.51;99854.53;2084425;28;19913;-60
2021/10/28 05:04:22;;;;;;;;;;;;;;;19.04;60.59;99853.69;2077805;28;19982;-61
2021/10/28 05:05:23;;;;;;;;;;;;;;;19.04;60.54;99856.41;2082329;28;19912;-61
2021/10/28 05:06:23;;;;;;;;;;;;;;;19.04;60.47;99855.56;2081802;28;20299;-60
2021/10/28 05:07:23;;;;;;;;;;;;;;;19.04;60.67;99855.56;2081577;28;20200;-60
2021/10/28 05:08:24;;;;;;;;;;;;;;;19.03;60.46;99854.69;2084763;28;20757;-60
2021/10/28 05:09:32;;;;;;;;;;;;;;;19.04;60.55;99852.81;2083357;28;19952;-60
2021/10/28 05:10:34;;;;;;;;;;;;;;;19.03;60.54;99856.56;2080528;28;20645;-61
2021/10/28 05:11:34;;;;;;;;;;;;;;;19.03;60.46;99853.81;2082766;28;19921;-61
2021/10/28 05:12:35;;;;;;;;;;;;;;;19.03;60.51;99862.00;2080281;28;19920;-60
2021/10/28 05:13:35;;;;;;;;;;;;;;;19.02;60.52;99861.16;2083337;28;19998;-60
2021/10/28 05:14:35;;;;;;;;;;;;;;;19.01;60.55;99851.25;2084795;28;19974;-61
2021/10/28 05:15:35;;;;;;;;;;;;;;;19.02;60.52;99854.84;2080445;28;19924;-60
2021/10/28 05:16:36;;;;;;;;;;;;;;;19.03;60.47;99853.81;2089247;28;20703;-64
2021/10/28 05:17:36;;;;;;;;;;;;;;;19.02;60.58;99857.56;2085156;28;20633;-60
2021/10/28 05:18:40;;;;;;;;;;;;;;;19.01;60.63;99854.00;2083415;28;20212;-60
2021/10/28 05:19:41;;;;;;;;;;;;;;;19.02;60.78;99854.84;2084015;28;19958;-60
2021/10/28 05:20:41;;;;;;;;;;;;;;;19.00;60.72;99854.13;2079499;28;19909;-60
2021/10/28 05:21:42;;;;;;;;;;;;;;;19.00;60.68;99857.72;2083574;28;19989;-60
2021/10/28 05:22:42;;;;;;;;;;;;;;;19.00;60.73;99854.13;2085263;28;20766;-60
2021/10/28 05:23:43;;;;;;;;;;;;;;;19.00;60.81;99845.94;2082090;28;20212;-61
2021/10/28 05:24:43;;;;;;;;;;;;;;;18.99;60.81;99855.16;2083845;28;19930;-61
2021/10/28 05:25:44;;;;;;;;;;;;;;;18.98;60.86;99850.69;2083887;28;20441;-60
2021/10/28 05:26:44;;;;;;;;;;;;;;;18.98;60.75;99847.97;2082990;28;19925;-60
2021/10/28 05:27:45;;;;;;;;;;;;;;;18.99;60.82;99844.25;2084311;28;20552;-61
2021/10/28 05:28:45;;;;;;;;;;;;;;;18.98;60.77;99843.34;2084435;28;19923;-61
2021/10/28 05:29:45;;;;;;;;;;;;;;;18.97;60.85;99841.66;2084015;28;19913;-61
2021/10/28 05:30:45;;;;;;;;;;;;;;;18.97;60.86;99840.78;2084660;28;19944;-61
2021/10/28 05:31:46;;;;;;;;;;;;;;;18.96;60.83;99837.22;2083567;28;19927;-61
2021/10/28 05:32:46;;;;;;;;;;;;;;;18.96;60.95;99839.94;2083647;28;19920;-60
2021/10/28 05:33:47;;;;;;;;;;;;;;;18.96;60.82;99850.00;2085120;28;19999;-60
2021/10/28 05:34:48;;;;;;;;;;;;;;;18.95;60.94;99843.66;2080857;28;19924;-60
2021/10/28 05:35:48;;;;;;;;;;;;;;;18.96;60.98;99839.94;2086712;28;19913;-59
2021/10/28 05:36:49;;;;;;;;;;;;;;;18.96;60.96;99850.88;2084151;28;19912;-60
2021/10/28 05:37:49;;;;;;;;;;;;;;;18.96;61.04;99836.34;2083002;28;19924;-60
2021/10/28 05:38:50;;;;;;;;;;;;;;;18.95;61.04;99842.81;2084969;28;20030;-60
2021/10/28 05:39:50;;;;;;;;;;;;;;;18.94;61.05;99832.91;2083377;28;19999;-61
2021/10/28 05:40:50;;;;;;;;;;;;;;;18.93;61.03;99829.31;2084275;28;19924;-60
2021/10/28 05:41:51;;;;;;;;;;;;;;;18.93;60.99;99826.56;2083270;28;19915;-61
2021/10/28 05:42:53;;;;;;;;;;;;;;;18.93;60.84;99834.78;2082974;28;19924;-60
2021/10/28 05:43:53;;;;;;;;;;;;;;;18.93;61.10;99829.31;2089298;28;19920;-60
2021/10/28 05:44:53;;;;;;;;;;;;;;;18.93;60.97;99837.50;2080968;28;19921;-60
2021/10/28 05:45:54;;;;;;;;;;;;;;;18.93;61.08;99828.47;2083698;28;19920;-61
2021/10/28 05:46:54;;;;;;;;;;;;;;;18.93;60.99;99833.91;2085912;28;19973;-61
2021/10/28 05:47:54;;;;;;;;;;;;;;;18.93;60.97;99833.91;2081417;28;19943;-60
2021/10/28 05:48:55;;;;;;;;;;;;;;;18.93;61.05;99829.31;2086954;28;19919;-61
2021/10/28 05:49:55;;;;;;;;;;;;;;;18.92;61.00;99833.06;2083261;28;19927;-60
2021/10/28 05:50:56;;;;;;;;;;;;;;;18.93;61.06;99844.84;2091289;28;19904;-60
2021/10/28 05:51:57;;;;;;;;;;;;;;;18.93;61.09;99833.91;2080384;28;19970;-61
2021/10/28 05:52:59;;;;;;;;;;;;;;;18.91;60.94;99836.78;2074041;28;19921;-61
2021/10/28 05:53:59;;;;;;;;;;;;;;;18.92;61.16;99849.44;2074914;28;19917;-61
2021/10/28 05:55:02;;;;;;;;;;;;;;;18.92;61.08;99844.00;2080303;28;19917;-61
2021/10/28 05:56:03;;;;;;;;;;;;;;;18.92;60.93;99848.59;2082576;28;20430;-61
2021/10/28 05:57:03;;;;;;;;;;;;;;;18.92;61.00;99846.72;2084633;28;20355;-60
2021/10/28 05:58:03;;;;;;;;;;;;;;;18.92;61.07;99845.88;2083603;28;19951;-61
2021/10/28 05:59:04;;;;;;;;;;;;;;;18.92;61.01;99845.88;2081671;28;19921;-61
2021/10/28 06:00:07;;;;;;;;;;;;;;;18.91;61.00;99846.88;2084599;28;19963;-61
2021/10/28 06:01:07;;;;;;;;;;;;;;;18.91;60.94;99849.59;2082921;28;20003;-61
2021/10/28 06:02:07;;;;;;;;;;;;;;;18.91;60.99;99846.88;2084231;28;20365;-66
2021/10/28 06:03:08;;;;;;;;;;;;;;;18.90;60.96;99845.16;2074856;28;19928;-66
2021/10/28 06:04:08;;;;;;;;;;;;;;;18.90;60.99;99850.63;2075688;28;19925;-66
2021/10/28 06:05:09;;;;;;;;;;;;;;;18.90;61.01;99847.91;2088269;28;19947;-66
2021/10/28 06:06:09;;;;;;;;;;;;;;;18.90;60.90;99847.91;2081432;28;20512;-66
2021/10/28 06:07:09;;;;;;;;;;;;;;;18.89;60.98;99851.63;2084348;28;21394;-67
2021/10/28 06:08:10;;;;;;;;;;;;;;;18.90;60.99;99850.63;2082397;28;19916;-66
2021/10/28 06:09:10;;;;;;;;;;;;;;;18.89;61.00;99843.44;2082906;28;19920;-65
2021/10/28 06:10:12;;;;;;;;;;;;;;;18.90;60.92;99847.91;2084632;28;19956;-66
2021/10/28 06:11:13;;;;;;;;;;;;;;;18.88;60.85;99848.03;2083750;28;19920;-66
2021/10/28 06:12:14;;;;;;;;;;;;;;;18.88;60.84;99852.66;2084041;28;20154;-66
2021/10/28 06:13:15;;;;;;;;;;;;;;;18.88;61.01;99847.19;2084319;28;19966;-66
2021/10/28 06:14:22;;;;;;;;;;;;;;;18.87;60.86;99849.06;2082956;28;19924;-66
2021/10/28 06:15:23;;;;;;;;;;;;;;;18.87;60.79;99848.22;2074498;28;19919;-66
2021/10/28 06:16:26;;;;;;;;;;;;;;;18.87;60.98;99848.22;2073670;28;19916;-66
2021/10/28 06:17:43;;;;;;;;;;;;;;;18.88;61.03;99847.19;2082299;28;19912;-66
2021/10/28 06:18:45;;;;;;;;;;;;;;;18.85;60.92;99843.75;2084545;28;19921;-66
2021/10/28 06:19:46;;;;;;;;;;;;;;;18.85;60.89;99843.75;2084171;28;19923;-66
2021/10/28 06:20:48;;;;;;;;;;;;;;;18.86;60.88;99860.97;2075031;28;19921;-66
2021/10/28 06:21:49;;;;;;;;;;;;;;;18.87;60.89;99850.94;2073391;28;19912;-66
2021/10/28 06:22:49;;;;;;;;;;;;;;;18.86;60.89;99855.50;2082585;28;20033;-66
2021/10/28 06:23:50;;;;;;;;;;;;;;;18.85;60.84;99860.13;2082890;28;19919;-66
2021/10/28 06:24:50;;;;;;;;;;;;;;;18.85;60.91;99848.34;2084588;28;19943;-69
2021/10/28 06:25:50;;;;;;;;;;;;;;;18.86;60.94;99852.78;2083004;28;19934;-69
2021/10/28 06:26:50;;;;;;;;;;;;;;;18.88;60.86;99853.50;2084068;28;19963;-69
2021/10/28 06:27:51;;;;;;;;;;;;;;;18.89;60.76;99854.34;2083162;28;19916;-69
2021/10/28 06:28:53;;;;;;;;;;;;;;;18.91;60.75;99857.78;2083078;28;19917;-69